createdAt,value
2017-11-26T00:00:37.596Z,100159.50
2017-11-26T00:01:44.084Z,100162.59
2017-11-26T00:02:49.830Z,100167.72
2017-11-26T00:03:55.555Z,100162.64
2017-11-26T00:05:01.267Z,100172.22
2017-11-26T00:06:07.767Z,100176.19
2017-11-26T00:07:13.474Z,100173.69
2017-11-26T00:08:19.226Z,100167.22
2017-11-26T00:09:24.945Z,100176.82
2017-11-26T00:10:31.432Z,100169.92
2017-11-26T00:11:37.146Z,100171.66
2017-11-26T00:12:43.427Z,100180.79
2017-11-26T00:13:49.180Z,100178.72
2017-11-26T00:14:54.895Z,100174.86
2017-11-26T00:16:01.380Z,100174.08
2017-11-26T00:17:07.114Z,100176.70
2017-11-26T00:18:12.638Z,100174.09
2017-11-26T00:19:18.370Z,100180.13
2017-11-26T00:20:23.898Z,100183.16
2017-11-26T00:21:30.385Z,100182.31
2017-11-26T00:22:35.907Z,100185.80
2017-11-26T00:23:41.631Z,100180.63
2017-11-26T00:24:48.129Z,100183.31
2017-11-26T00:25:53.841Z,100188.09
2017-11-26T00:26:59.561Z,100192.86
2017-11-26T00:28:05.270Z,100189.84
2017-11-26T00:29:10.981Z,100197.22
2017-11-26T00:30:16.738Z,100193.78
2017-11-26T00:31:22.465Z,100197.68
2017-11-26T00:32:28.004Z,100199.44
2017-11-26T00:33:33.709Z,100197.73
2017-11-26T00:34:40.058Z,100199.52
2017-11-26T00:35:45.608Z,100191.33
2017-11-26T00:36:52.083Z,100197.83
2017-11-26T00:37:57.615Z,100198.26
2017-11-26T00:39:03.332Z,100195.66
2017-11-26T00:40:09.815Z,100186.20
2017-11-26T00:41:15.565Z,100194.38
2017-11-26T00:42:21.274Z,100182.70
2017-11-26T00:43:27.070Z,100190.47
2017-11-26T00:44:32.783Z,100195.27
2017-11-26T00:45:38.500Z,100194.45
2017-11-26T00:46:44.810Z,100197.95
2017-11-26T00:47:50.538Z,100195.38
2017-11-26T00:48:56.253Z,100195.81
2017-11-26T00:50:01.979Z,100198.39
2017-11-26T00:51:08.464Z,100207.46
2017-11-26T00:52:14.267Z,100208.44
2017-11-26T00:53:20.753Z,100216.20
2017-11-26T00:54:26.468Z,100214.03
2017-11-26T00:55:32.959Z,100220.12
2017-11-26T00:56:38.663Z,100223.56
2017-11-26T00:57:44.410Z,100214.95
2017-11-26T00:58:50.917Z,100224.52
2017-11-26T00:59:56.653Z,100223.25
2017-11-26T01:01:02.363Z,100224.11
2017-11-26T01:02:08.084Z,100225.39
2017-11-26T01:03:13.814Z,100225.86
2017-11-26T01:04:19.535Z,100225.00
2017-11-26T01:05:25.238Z,100225.96
2017-11-26T01:06:30.946Z,100223.80
2017-11-26T01:07:36.654Z,100228.15
2017-11-26T01:08:42.394Z,100235.94
2017-11-26T01:09:47.903Z,100240.67
2017-11-26T01:10:53.626Z,100234.19
2017-11-26T01:12:00.106Z,100233.80
2017-11-26T01:13:05.820Z,100234.76
2017-11-26T01:14:12.324Z,100235.20
2017-11-26T01:15:18.039Z,100236.05
2017-11-26T01:16:23.768Z,100237.36
2017-11-26T01:17:29.474Z,100243.45
2017-11-26T01:18:35.389Z,100250.33
2017-11-26T01:19:41.138Z,100245.13
2017-11-26T01:20:46.850Z,100252.05
2017-11-26T01:21:52.553Z,100254.59
2017-11-26T01:22:59.041Z,100255.44
2017-11-26T01:24:04.758Z,100253.24
2017-11-26T01:25:11.266Z,100258.41
2017-11-26T01:26:16.990Z,100258.91
2017-11-26T01:27:22.720Z,100259.35
2017-11-26T01:28:28.435Z,100255.89
2017-11-26T01:29:34.933Z,100255.88
2017-11-26T01:30:40.704Z,100255.02
2017-11-26T01:31:46.437Z,100252.47
2017-11-26T01:32:52.157Z,100255.56
2017-11-26T01:33:57.870Z,100258.16
2017-11-26T01:35:03.595Z,100259.01
2017-11-26T01:36:10.118Z,100253.85
2017-11-26T01:37:15.838Z,100253.01
2017-11-26T01:38:21.549Z,100254.69
2017-11-26T01:39:28.027Z,100257.34
2017-11-26T01:40:33.745Z,100257.78
2017-11-26T01:41:40.258Z,100252.17
2017-11-26T01:42:45.990Z,100255.61
2017-11-26T01:43:51.715Z,100254.72
2017-11-26T01:44:57.432Z,100257.34
2017-11-26T01:46:03.160Z,100249.56
2017-11-26T01:47:09.669Z,100260.78
2017-11-26T01:48:15.395Z,100256.00
2017-11-26T01:49:21.116Z,100261.20
2017-11-26T01:50:26.834Z,100265.52
2017-11-26T01:51:33.136Z,100262.84
2017-11-26T01:52:39.603Z,100264.58
2017-11-26T01:53:45.322Z,100262.91
2017-11-26T01:54:50.865Z,100265.94
2017-11-26T01:55:56.407Z,100266.38
2017-11-26T01:57:02.128Z,100268.11
2017-11-26T01:58:07.699Z,100265.98
2017-11-26T01:59:13.425Z,100256.47
2017-11-26T02:00:18.484Z,100261.66
2017-11-26T02:01:23.558Z,100266.52
2017-11-26T02:02:29.025Z,100265.63
2017-11-26T02:03:34.013Z,100261.32
2017-11-26T02:04:39.404Z,100264.77
2017-11-26T02:05:44.934Z,100262.17
2017-11-26T02:06:50.674Z,100260.85
2017-11-26T02:07:56.395Z,100266.83
2017-11-26T02:09:01.955Z,100263.81
2017-11-26T02:10:07.492Z,100269.81
2017-11-26T02:11:13.026Z,100263.30
2017-11-26T02:12:18.757Z,100265.84
2017-11-26T02:13:24.489Z,100259.77
2017-11-26T02:14:30.236Z,100261.43
2017-11-26T02:15:35.961Z,100264.00
2017-11-26T02:16:41.707Z,100262.72
2017-11-26T02:17:47.527Z,100261.41
2017-11-26T02:18:53.258Z,100255.28
2017-11-26T02:19:58.395Z,100260.09
2017-11-26T02:21:03.466Z,100259.27
2017-11-26T02:22:08.857Z,100262.25
2017-11-26T02:23:14.233Z,100268.63
2017-11-26T02:24:19.301Z,100266.45
2017-11-26T02:25:25.065Z,100279.42
2017-11-26T02:26:30.448Z,100272.93
2017-11-26T02:27:35.902Z,100284.59
2017-11-26T02:28:41.736Z,100275.95
2017-11-26T02:29:47.569Z,100279.44
2017-11-26T02:30:53.557Z,100286.00
2017-11-26T02:32:16.281Z,100277.80
2017-11-26T02:33:38.932Z,100284.70
2017-11-26T02:35:01.391Z,100287.34
2017-11-26T02:36:23.441Z,100288.23
2017-11-26T02:37:29.279Z,100286.55
2017-11-26T02:38:35.003Z,100286.58
2017-11-26T02:39:40.070Z,100287.10
2017-11-26T02:40:46.425Z,100283.69
2017-11-26T02:41:52.279Z,100283.68
2017-11-26T02:42:57.371Z,100286.80
2017-11-26T02:44:02.418Z,100289.42
2017-11-26T02:45:08.906Z,100290.73
2017-11-26T02:46:14.631Z,100294.23
2017-11-26T02:47:19.518Z,100291.67
2017-11-26T02:48:25.257Z,100293.04
2017-11-26T02:49:30.323Z,100290.91
2017-11-26T02:50:36.455Z,100296.55
2017-11-26T02:51:42.271Z,100291.00
2017-11-26T02:52:47.428Z,100300.94
2017-11-26T02:53:52.824Z,100299.67
2017-11-26T02:54:57.876Z,100300.98
2017-11-26T02:56:03.566Z,100302.78
2017-11-26T02:57:09.287Z,100298.52
2017-11-26T02:58:15.052Z,100305.41
2017-11-26T02:59:20.110Z,100303.23
2017-11-26T03:00:26.253Z,100307.99
2017-11-26T03:01:31.647Z,100306.33
2017-11-26T03:02:37.350Z,100303.77
2017-11-26T03:03:43.916Z,100316.74
2017-11-26T03:04:50.398Z,100317.17
2017-11-26T03:05:56.128Z,100321.50
2017-11-26T03:07:02.616Z,100317.66
2017-11-26T03:08:08.378Z,100315.53
2017-11-26T03:09:14.123Z,100323.33
2017-11-26T03:10:19.639Z,100318.20
2017-11-26T03:11:25.362Z,100328.14
2017-11-26T03:12:31.082Z,100325.53
2017-11-26T03:13:37.570Z,100330.72
2017-11-26T03:14:43.314Z,100333.75
2017-11-26T03:15:49.038Z,100326.86
2017-11-26T03:16:54.763Z,100329.45
2017-11-26T03:18:01.241Z,100334.70
2017-11-26T03:19:06.955Z,100334.22
2017-11-26T03:20:13.475Z,100336.45
2017-11-26T03:21:19.220Z,100333.88
2017-11-26T03:22:24.634Z,100330.39
2017-11-26T03:23:30.354Z,100333.00
2017-11-26T03:24:36.072Z,100335.14
2017-11-26T03:25:42.585Z,100333.88
2017-11-26T03:26:48.129Z,100331.80
2017-11-26T03:27:53.651Z,100337.40
2017-11-26T03:28:59.196Z,100330.92
2017-11-26T03:30:04.417Z,100337.82
2017-11-26T03:31:10.166Z,100335.23
2017-11-26T03:32:15.910Z,100332.64
2017-11-26T03:33:21.435Z,100333.94
2017-11-26T03:34:27.169Z,100339.13
2017-11-26T03:35:32.703Z,100331.84
2017-11-26T03:36:38.438Z,100337.50
2017-11-26T03:37:44.152Z,100335.36
2017-11-26T03:38:49.683Z,100338.83
2017-11-26T03:39:55.987Z,100338.02
2017-11-26T03:41:01.707Z,100341.05
2017-11-26T03:42:07.458Z,100336.34
2017-11-26T03:43:13.187Z,100329.91
2017-11-26T03:44:18.893Z,100333.33
2017-11-26T03:45:25.378Z,100336.83
2017-11-26T03:46:31.089Z,100333.81
2017-11-26T03:47:37.604Z,100335.95
2017-11-26T03:48:43.322Z,100342.86
2017-11-26T03:49:49.038Z,100341.95
2017-11-26T03:50:55.528Z,100342.77
2017-11-26T03:52:01.271Z,100348.39
2017-11-26T03:53:06.711Z,100350.55
2017-11-26T03:54:12.307Z,100353.61
2017-11-26T03:55:18.181Z,100353.57
2017-11-26T03:56:24.324Z,100351.42
2017-11-26T03:57:29.871Z,100355.33
2017-11-26T03:58:35.421Z,100353.60
2017-11-26T03:59:41.140Z,100351.02
2017-11-26T04:00:46.855Z,100356.63
2017-11-26T04:01:53.329Z,100352.72
2017-11-26T04:02:59.045Z,100357.91
2017-11-26T04:04:05.559Z,100349.29
2017-11-26T04:05:11.286Z,100351.49
2017-11-26T04:06:17.055Z,100353.61
2017-11-26T04:07:22.593Z,100351.08
2017-11-26T04:08:28.503Z,100349.78
2017-11-26T04:09:34.267Z,100351.08
2017-11-26T04:10:39.999Z,100353.22
2017-11-26T04:11:45.718Z,100346.79
2017-11-26T04:12:51.450Z,100348.58
2017-11-26T04:13:57.185Z,100353.31
2017-11-26T04:15:03.691Z,100345.13
2017-11-26T04:16:08.754Z,100355.48
2017-11-26T04:17:13.817Z,100346.44
2017-11-26T04:18:18.882Z,100351.63
2017-11-26T04:19:24.276Z,100352.98
2017-11-26T04:20:30.014Z,100351.27
2017-11-26T04:21:35.730Z,100354.27
2017-11-26T04:22:42.220Z,100353.84
2017-11-26T04:23:47.935Z,100350.41
2017-11-26T04:24:54.418Z,100347.84
2017-11-26T04:25:59.506Z,100350.01
2017-11-26T04:27:05.658Z,100353.42
2017-11-26T04:28:11.374Z,100350.42
2017-11-26T04:29:17.095Z,100358.64
2017-11-26T04:30:22.812Z,100360.36
2017-11-26T04:31:28.560Z,100359.97
2017-11-26T04:32:34.284Z,100357.41
2017-11-26T04:33:40.000Z,100356.56
2017-11-26T04:34:46.478Z,100359.21
2017-11-26T04:35:51.857Z,100360.95
2017-11-26T04:36:57.597Z,100360.01
2017-11-26T04:38:03.321Z,100355.70
2017-11-26T04:39:09.035Z,100359.58
2017-11-26T04:40:14.765Z,100359.58
2017-11-26T04:41:21.241Z,100354.84
2017-11-26T04:42:27.009Z,100355.34
2017-11-26T04:43:32.733Z,100355.75
2017-11-26T04:44:38.436Z,100352.25
2017-11-26T04:45:45.126Z,100357.05
2017-11-26T04:46:50.833Z,100357.87
2017-11-26T04:47:56.574Z,100357.86
2017-11-26T04:49:03.068Z,100356.13
2017-11-26T04:50:08.801Z,100360.07
2017-11-26T04:51:15.290Z,100351.89
2017-11-26T04:52:20.806Z,100354.45
2017-11-26T04:53:26.363Z,100354.48
2017-11-26T04:54:32.084Z,100351.47
2017-11-26T04:55:37.827Z,100351.47
2017-11-26T04:56:43.556Z,100356.22
2017-11-26T04:57:49.266Z,100358.39
2017-11-26T04:58:55.593Z,100354.93
2017-11-26T05:00:01.318Z,100360.97
2017-11-26T05:01:06.455Z,100352.31
2017-11-26T05:02:11.087Z,100360.96
2017-11-26T05:03:16.147Z,100363.13
2017-11-26T05:04:21.998Z,100356.65
2017-11-26T05:05:27.050Z,100352.79
2017-11-26T05:06:32.780Z,100362.75
2017-11-26T05:07:38.499Z,100357.14
2017-11-26T05:08:44.989Z,100353.30
2017-11-26T05:09:50.737Z,100354.66
2017-11-26T05:10:56.465Z,100354.59
2017-11-26T05:12:02.197Z,100355.51
2017-11-26T05:13:07.919Z,100362.84
2017-11-26T05:14:14.439Z,100366.28
2017-11-26T05:15:25.890Z,100365.80
2017-11-26T05:16:31.612Z,100367.09
2017-11-26T05:17:37.332Z,100365.80
2017-11-26T05:18:43.823Z,100359.31
2017-11-26T05:19:49.539Z,100365.77
2017-11-26T05:20:56.045Z,100370.09
2017-11-26T05:22:01.855Z,100372.26
2017-11-26T05:23:07.562Z,100368.38
2017-11-26T05:24:14.064Z,100370.53
2017-11-26T05:25:19.806Z,100369.67
2017-11-26T05:26:25.551Z,100376.14
2017-11-26T05:27:31.266Z,100363.20
2017-11-26T05:28:37.755Z,100369.66
2017-11-26T05:29:43.491Z,100365.78
2017-11-26T05:30:49.205Z,100361.92
2017-11-26T05:31:54.950Z,100363.64
2017-11-26T05:33:00.663Z,100365.78
2017-11-26T05:34:07.149Z,100368.31
2017-11-26T05:35:12.678Z,100368.74
2017-11-26T05:36:18.400Z,100370.03
2017-11-26T05:37:23.959Z,100369.21
2017-11-26T05:38:29.679Z,100374.42
2017-11-26T05:39:36.171Z,100375.28
2017-11-26T05:40:41.891Z,100379.16
2017-11-26T05:41:48.682Z,100380.44
2017-11-26T05:42:54.221Z,100383.45
2017-11-26T05:43:59.942Z,100383.83
2017-11-26T05:45:06.238Z,100388.16
2017-11-26T05:46:11.752Z,100386.05
2017-11-26T05:47:17.466Z,100379.16
2017-11-26T05:48:23.793Z,100390.74
2017-11-26T05:49:29.517Z,100388.20
2017-11-26T05:50:35.058Z,100384.34
2017-11-26T05:51:40.778Z,100386.09
2017-11-26T05:52:46.500Z,100383.50
2017-11-26T05:53:52.247Z,100387.36
2017-11-26T05:54:57.972Z,100388.22
2017-11-26T05:56:03.702Z,100390.81
2017-11-26T05:57:09.424Z,100388.23
2017-11-26T05:58:15.908Z,100389.52
2017-11-26T05:59:21.662Z,100389.52
2017-11-26T06:00:26.713Z,100389.94
2017-11-26T06:01:32.429Z,100384.32
2017-11-26T06:02:38.139Z,100386.91
2017-11-26T06:03:44.957Z,100389.52
2017-11-26T06:04:50.568Z,100392.16
2017-11-26T06:05:56.362Z,100388.72
2017-11-26T06:07:02.090Z,100399.06
2017-11-26T06:08:07.803Z,100391.23
2017-11-26T06:09:13.519Z,100388.19
2017-11-26T06:10:20.028Z,100392.90
2017-11-26T06:11:25.742Z,100387.34
2017-11-26T06:12:31.479Z,100387.77
2017-11-26T06:13:37.960Z,100387.36
2017-11-26T06:14:43.690Z,100384.77
2017-11-26T06:15:49.421Z,100385.61
2017-11-26T06:16:55.133Z,100382.98
2017-11-26T06:18:01.615Z,100384.27
2017-11-26T06:19:07.338Z,100386.47
2017-11-26T06:20:13.813Z,100384.76
2017-11-26T06:21:19.236Z,100383.45
2017-11-26T06:22:24.767Z,100389.00
2017-11-26T06:23:31.245Z,100385.55
2017-11-26T06:24:36.957Z,100383.39
2017-11-26T06:25:43.455Z,100388.12
2017-11-26T06:26:49.184Z,100390.72
2017-11-26T06:27:54.569Z,100386.76
2017-11-26T06:29:01.050Z,100385.88
2017-11-26T06:30:07.539Z,100393.28
2017-11-26T06:31:14.018Z,100396.24
2017-11-26T06:32:19.764Z,100399.70
2017-11-26T06:33:25.297Z,100397.12
2017-11-26T06:34:30.684Z,100397.19
2017-11-26T06:35:36.213Z,100406.73
2017-11-26T06:36:42.363Z,100407.55
2017-11-26T06:37:48.695Z,100411.42
2017-11-26T06:38:54.414Z,100408.41
2017-11-26T06:39:59.925Z,100412.72
2017-11-26T06:41:05.480Z,100405.39
2017-11-26T06:42:11.195Z,100409.72
2017-11-26T06:43:16.932Z,100407.11
2017-11-26T06:44:22.458Z,100411.41
2017-11-26T06:45:28.171Z,100413.58
2017-11-26T06:46:33.702Z,100414.01
2017-11-26T06:47:39.478Z,100414.86
2017-11-26T06:48:45.232Z,100417.45
2017-11-26T06:49:50.951Z,100422.19
2017-11-26T06:50:57.445Z,100419.98
2017-11-26T06:52:03.153Z,100422.63
2017-11-26T06:53:09.642Z,100425.62
2017-11-26T06:54:15.384Z,100432.06
2017-11-26T06:55:20.911Z,100427.31
2017-11-26T06:56:26.626Z,100426.86
2017-11-26T06:57:32.913Z,100427.72
2017-11-26T06:58:38.622Z,100433.33
2017-11-26T06:59:45.145Z,100431.59
2017-11-26T07:00:50.860Z,100433.76
2017-11-26T07:01:56.390Z,100434.20
2017-11-26T07:03:02.120Z,100438.53
2017-11-26T07:04:07.836Z,100436.38
2017-11-26T07:05:14.339Z,100441.09
2017-11-26T07:06:20.061Z,100443.25
2017-11-26T07:07:25.794Z,100435.92
2017-11-26T07:08:31.511Z,100440.67
2017-11-26T07:09:37.989Z,100444.98
2017-11-26T07:10:43.125Z,100444.54
2017-11-26T07:11:48.514Z,100451.39
2017-11-26T07:12:53.566Z,100445.34
2017-11-26T07:13:58.644Z,100453.11
2017-11-26T07:15:04.370Z,100451.80
2017-11-26T07:16:10.112Z,100453.09
2017-11-26T07:17:15.849Z,100450.08
2017-11-26T07:18:21.563Z,100458.27
2017-11-26T07:19:27.370Z,100455.23
2017-11-26T07:20:33.082Z,100456.52
2017-11-26T07:21:38.831Z,100453.52
2017-11-26T07:22:44.204Z,100456.95
2017-11-26T07:23:50.698Z,100458.71
2017-11-26T07:24:56.473Z,100451.38
2017-11-26T07:26:02.200Z,100454.39
2017-11-26T07:27:07.937Z,100453.09
2017-11-26T07:28:13.654Z,100457.39
2017-11-26T07:29:19.386Z,100462.13
2017-11-26T07:30:25.096Z,100457.34
2017-11-26T07:31:30.812Z,100459.48
2017-11-26T07:32:36.557Z,100459.45
2017-11-26T07:33:42.094Z,100463.78
2017-11-26T07:34:47.822Z,100465.44
2017-11-26T07:35:53.548Z,100472.34
2017-11-26T07:36:59.268Z,100467.58
2017-11-26T07:38:05.013Z,100468.44
2017-11-26T07:39:10.725Z,100475.34
2017-11-26T07:40:17.211Z,100488.66
2017-11-26T07:41:22.926Z,100474.84
2017-11-26T07:42:29.410Z,100474.33
2017-11-26T07:43:35.251Z,100476.91
2017-11-26T07:44:40.963Z,100476.02
2017-11-26T07:45:47.448Z,100471.65
2017-11-26T07:46:53.163Z,100472.95
2017-11-26T07:47:59.643Z,100473.80
2017-11-26T07:49:05.381Z,100477.24
2017-11-26T07:50:11.113Z,100482.36
2017-11-26T07:51:17.590Z,100480.17
2017-11-26T07:52:23.108Z,100480.59
2017-11-26T07:53:29.613Z,100486.56
2017-11-26T07:54:35.360Z,100479.21
2017-11-26T07:55:41.381Z,100485.59
2017-11-26T07:56:47.094Z,100485.98
2017-11-26T07:57:53.604Z,100489.39
2017-11-26T07:58:59.336Z,100492.79
2017-11-26T08:00:05.069Z,100489.33
2017-11-26T08:01:10.787Z,100488.45
2017-11-26T08:02:17.174Z,100486.22
2017-11-26T08:03:22.896Z,100490.09
2017-11-26T08:04:28.615Z,100494.37
2017-11-26T08:05:34.941Z,100494.82
2017-11-26T08:06:41.421Z,100498.22
2017-11-26T08:07:47.712Z,100499.48
2017-11-26T08:08:53.247Z,100497.31
2017-11-26T08:09:58.958Z,100497.25
2017-11-26T08:11:04.715Z,100501.11
2017-11-26T08:12:10.481Z,100496.31
2017-11-26T08:13:16.264Z,100498.42
2017-11-26T08:14:22.252Z,100496.70
2017-11-26T08:15:28.014Z,100497.91
2017-11-26T08:16:33.760Z,100503.89
2017-11-26T08:17:39.470Z,100504.72
2017-11-26T08:18:44.985Z,100504.64
2017-11-26T08:19:51.475Z,100498.50
2017-11-26T08:20:57.194Z,100505.37
2017-11-26T08:22:03.700Z,100500.98
2017-11-26T08:23:09.410Z,100506.08
2017-11-26T08:24:15.118Z,100509.05
2017-11-26T08:25:21.599Z,100512.36
2017-11-26T08:26:27.309Z,100508.88
2017-11-26T08:27:33.049Z,100506.21
2017-11-26T08:28:38.757Z,100517.34
2017-11-26T08:29:44.573Z,100510.30
2017-11-26T08:30:50.282Z,100514.48
2017-11-26T08:31:56.742Z,100512.22
2017-11-26T08:33:03.255Z,100509.12
2017-11-26T08:34:08.966Z,100505.11
2017-11-26T08:35:14.695Z,100507.13
2017-11-26T08:36:21.174Z,100510.86
2017-11-26T08:37:26.878Z,100511.92
2017-11-26T08:38:33.591Z,100511.33
2017-11-26T08:39:39.319Z,100510.25
2017-11-26T08:40:44.841Z,100506.01
2017-11-26T08:41:51.195Z,100504.34
2017-11-26T08:42:57.484Z,100499.97
2017-11-26T08:44:03.056Z,100499.11
2017-11-26T08:45:08.587Z,100496.14
2017-11-26T08:46:14.093Z,100493.95
2017-11-26T08:47:19.622Z,100501.13
2017-11-26T08:48:25.138Z,100503.44
2017-11-26T08:49:30.688Z,100499.80
2017-11-26T08:50:36.215Z,100507.66
2017-11-26T08:51:41.741Z,100502.90
2017-11-26T08:52:46.627Z,100497.39
2017-11-26T08:53:52.909Z,100499.34
2017-11-26T08:54:59.222Z,100495.86
2017-11-26T08:56:04.919Z,100499.60
2017-11-26T08:57:10.447Z,100493.64
2017-11-26T08:58:16.725Z,100489.83
2017-11-26T08:59:22.240Z,100484.47
2017-11-26T09:00:27.783Z,100489.13
2017-11-26T09:01:33.303Z,100484.53
2017-11-26T09:02:40.060Z,100482.54
2017-11-26T09:03:45.289Z,100487.55
2017-11-26T09:04:51.571Z,100490.88
2017-11-26T09:05:57.097Z,100496.27
2017-11-26T09:07:06.772Z,100496.30
2017-11-26T09:08:13.348Z,100496.16
2017-11-26T09:09:19.692Z,100490.56
2017-11-26T09:10:25.261Z,100487.84
2017-11-26T09:11:30.795Z,100492.23
2017-11-26T09:12:36.878Z,100494.42
2017-11-26T09:13:42.393Z,100494.20
2017-11-26T09:14:48.693Z,100499.03
2017-11-26T09:15:54.209Z,100505.81
2017-11-26T09:16:59.954Z,100505.22
2017-11-26T09:18:06.254Z,100510.69
2017-11-26T09:19:12.131Z,100502.20
2017-11-26T09:20:18.480Z,100499.67
2017-11-26T09:21:24.025Z,100497.11
2017-11-26T09:22:30.105Z,100500.84
2017-11-26T09:23:35.794Z,100498.88
2017-11-26T09:24:42.081Z,100499.19
2017-11-26T09:25:47.882Z,100501.97
2017-11-26T09:26:53.572Z,100502.63
2017-11-26T09:27:59.121Z,100497.09
2017-11-26T09:29:05.015Z,100496.77
2017-11-26T09:30:11.325Z,100492.17
2017-11-26T09:31:17.027Z,100497.21
2017-11-26T09:32:22.728Z,100493.63
2017-11-26T09:33:28.450Z,100492.66
2017-11-26T09:34:34.356Z,100496.88
2017-11-26T09:35:40.323Z,100498.55
2017-11-26T09:36:46.082Z,100494.45
2017-11-26T09:37:51.783Z,100490.22
2017-11-26T09:38:58.071Z,100485.27
2017-11-26T09:40:03.515Z,100488.36
2017-11-26T09:41:09.326Z,100481.84
2017-11-26T09:42:15.230Z,100494.97
2017-11-26T09:43:22.152Z,100492.92
2017-11-26T09:44:28.046Z,100495.79
2017-11-26T09:45:34.550Z,100493.22
2017-11-26T09:46:40.328Z,100495.72
2017-11-26T09:47:46.097Z,100498.31
2017-11-26T09:48:51.876Z,100498.36
2017-11-26T09:49:57.676Z,100491.90
2017-11-26T09:51:04.243Z,100503.14
2017-11-26T09:52:09.828Z,100498.09
2017-11-26T09:53:15.958Z,100497.09
2017-11-26T09:54:21.746Z,100496.66
2017-11-26T09:55:27.624Z,100500.16
2017-11-26T09:56:34.113Z,100493.06
2017-11-26T09:57:40.048Z,100492.73
2017-11-26T09:58:46.034Z,100489.41
2017-11-26T09:59:51.855Z,100489.67
2017-11-26T10:00:57.714Z,100487.73
2017-11-26T10:02:04.529Z,100485.23
2017-11-26T10:03:11.015Z,100483.05
2017-11-26T10:04:16.620Z,100491.10
2017-11-26T10:05:23.198Z,100486.66
2017-11-26T10:06:29.002Z,100485.05
2017-11-26T10:07:34.741Z,100495.59
2017-11-26T10:08:41.042Z,100490.47
2017-11-26T10:09:46.783Z,100495.98
2017-11-26T10:10:52.403Z,100493.42
2017-11-26T10:11:58.896Z,100486.77
2017-11-26T10:13:04.414Z,100494.87
2017-11-26T10:14:10.114Z,100500.56
2017-11-26T10:15:15.977Z,100489.73
2017-11-26T10:16:21.743Z,100506.43
2017-11-26T10:17:28.054Z,100500.69
2017-11-26T10:18:34.569Z,100501.59
2017-11-26T10:19:40.381Z,100497.87
2017-11-26T10:20:46.094Z,100503.11
2017-11-26T10:21:51.803Z,100498.64
2017-11-26T10:22:57.534Z,100490.93
2017-11-26T10:24:03.238Z,100492.98
2017-11-26T10:25:09.503Z,100491.87
2017-11-26T10:26:15.257Z,100494.23
2017-11-26T10:27:20.990Z,100492.27
2017-11-26T10:28:26.730Z,100491.41
2017-11-26T10:29:32.443Z,100490.95
2017-11-26T10:30:38.978Z,100486.77
2017-11-26T10:31:44.670Z,100489.84
2017-11-26T10:32:50.378Z,100489.27
2017-11-26T10:33:55.710Z,100488.61
2017-11-26T10:35:01.435Z,100489.14
2017-11-26T10:36:07.944Z,100482.06
2017-11-26T10:37:15.034Z,100489.09
2017-11-26T10:38:21.985Z,100486.38
2017-11-26T10:39:27.822Z,100486.11
2017-11-26T10:40:33.353Z,100487.63
2017-11-26T10:41:39.062Z,100487.61
2017-11-26T10:42:44.614Z,100491.05
2017-11-26T10:43:51.151Z,100496.73
2017-11-26T10:44:57.761Z,100492.79
2017-11-26T10:46:03.090Z,100486.71
2017-11-26T10:47:08.472Z,100483.81
2017-11-26T10:48:13.812Z,100478.77
2017-11-26T10:49:19.067Z,100480.34
2017-11-26T10:50:25.156Z,100480.48
2017-11-26T10:51:30.802Z,100476.39
2017-11-26T10:52:36.007Z,100473.61
2017-11-26T10:53:41.324Z,100475.80
2017-11-26T10:54:48.455Z,100479.17
2017-11-26T10:55:55.333Z,100464.30
2017-11-26T10:57:02.220Z,100471.27
2017-11-26T10:58:07.794Z,100471.31
2017-11-26T10:59:15.334Z,100472.81
2017-11-26T11:00:22.405Z,100477.13
2017-11-26T11:01:28.744Z,100472.48
2017-11-26T11:02:35.266Z,100472.57
2017-11-26T11:03:41.067Z,100464.31
2017-11-26T11:04:46.854Z,100481.17
2017-11-26T11:05:54.057Z,100465.70
2017-11-26T11:07:03.597Z,100475.41
2017-11-26T11:08:11.370Z,100478.89
2017-11-26T11:09:18.507Z,100484.16
2017-11-26T11:10:24.219Z,100483.02
2017-11-26T11:11:30.806Z,100488.36
2017-11-26T11:12:36.828Z,100481.50
2017-11-26T11:13:42.532Z,100479.34
2017-11-26T11:14:47.967Z,100492.34
2017-11-26T11:15:53.907Z,100492.97
2017-11-26T11:16:59.843Z,100497.45
2017-11-26T11:18:05.919Z,100497.00
2017-11-26T11:19:11.332Z,100487.92
2017-11-26T11:20:17.345Z,100491.81
2017-11-26T11:21:24.121Z,100483.05
2017-11-26T11:22:30.349Z,100495.78
2017-11-26T11:23:36.698Z,100501.99
2017-11-26T11:24:43.182Z,100493.70
2017-11-26T11:25:48.954Z,100494.16
2017-11-26T11:26:54.659Z,100494.98
2017-11-26T11:28:01.983Z,100497.14
2017-11-26T11:29:08.034Z,100489.47
2017-11-26T11:30:14.015Z,100496.33
2017-11-26T11:31:20.850Z,100498.84
2017-11-26T11:32:27.571Z,100493.09
2017-11-26T11:33:33.179Z,100501.47
2017-11-26T11:34:39.257Z,100499.69
2017-11-26T11:35:45.908Z,100494.34
2017-11-26T11:36:51.893Z,100496.02
2017-11-26T11:37:58.637Z,100492.50
2017-11-26T11:39:04.384Z,100489.51
2017-11-26T11:40:11.253Z,100483.37
2017-11-26T11:41:17.331Z,100483.03
2017-11-26T11:42:23.444Z,100483.84
2017-11-26T11:43:31.167Z,100485.83
2017-11-26T11:44:37.467Z,100485.95
2017-11-26T11:45:43.557Z,100484.45
2017-11-26T11:46:52.132Z,100484.01
2017-11-26T11:47:58.239Z,100476.08
2017-11-26T11:49:05.750Z,100475.72
2017-11-26T11:50:11.775Z,100472.65
2017-11-26T11:51:18.020Z,100477.53
2017-11-26T11:52:23.899Z,100477.45
2017-11-26T11:53:30.947Z,100479.11
2017-11-26T11:54:38.787Z,100475.30
2017-11-26T11:55:44.817Z,100483.59
2017-11-26T11:56:50.648Z,100483.85
2017-11-26T11:57:57.723Z,100483.23
2017-11-26T11:59:03.127Z,100487.41
2017-11-26T12:00:08.903Z,100488.12
2017-11-26T12:01:14.882Z,100483.89
2017-11-26T12:02:20.408Z,100485.50
2017-11-26T12:03:26.387Z,100485.35
2017-11-26T12:04:33.198Z,100489.84
2017-11-26T12:05:39.903Z,100492.89
2017-11-26T12:06:45.686Z,100480.81
2017-11-26T12:07:51.301Z,100492.66
2017-11-26T12:08:57.930Z,100485.35
2017-11-26T12:10:03.363Z,100490.45
2017-11-26T12:11:10.103Z,100484.28
2017-11-26T12:12:16.728Z,100485.47
2017-11-26T12:13:23.244Z,100483.16
2017-11-26T12:14:29.377Z,100488.20
2017-11-26T12:15:34.946Z,100483.76
2017-11-26T12:16:40.769Z,100483.78
2017-11-26T12:17:46.688Z,100485.69
2017-11-26T12:18:52.241Z,100490.99
2017-11-26T12:19:57.804Z,100490.56
2017-11-26T12:21:04.071Z,100479.69
2017-11-26T12:22:09.884Z,100483.96
2017-11-26T12:23:18.637Z,100485.50
2017-11-26T12:24:24.104Z,100477.58
2017-11-26T12:25:29.901Z,100482.38
2017-11-26T12:26:36.512Z,100483.20
2017-11-26T12:27:42.458Z,100477.73
2017-11-26T12:28:48.041Z,100485.05
2017-11-26T12:29:53.619Z,100480.55
2017-11-26T12:30:59.886Z,100484.57
2017-11-26T12:32:05.286Z,100479.17
2017-11-26T12:33:12.290Z,100478.25